sensor_id;sensor_type;location;lat;lon;timestamp;pressure;altitude;pressure_sealevel;temperature;humidity
42587;BME280;28216;53.362;-6.288;2023-05-23T00:01:43;102800.66;;;12.83;100.00
42587;BME280;28216;53.362;-6.288;2023-05-23T00:04:09;102796.25;;;12.84;100.00
42587;BME280;28216;53.362;-6.288;2023-05-23T00:06:41;102801.63;;;12.82;100.00
42587;BME280;28216;53.362;-6.288;2023-05-23T00:09:11;102799.84;;;12.83;100.00
42587;BME280;28216;53.362;-6.288;2023-05-23T00:11:37;102805.09;;;12.83;100.00
42587;BME280;28216;53.362;-6.288;2023-05-23T00:14:02;102795.78;;;12.79;100.00
42587;BME280;28216;53.362;-6.288;2023-05-23T00:16:28;102805.47;;;12.78;100.00
42587;BME280;28216;53.362;-6.288;2023-05-23T00:18:54;102807.97;;;12.80;100.00
42587;BME280;28216;53.362;-6.288;2023-05-23T00:21:21;102796.16;;;12.74;100.00
42587;BME280;28216;53.362;-6.288;2023-05-23T00:23:47;102805.38;;;12.68;100.00
42587;BME280;28216;53.362;-6.288;2023-05-23T00:26:12;102806.56;;;12.76;100.00
42587;BME280;28216;53.362;-6.288;2023-05-23T00:28:38;102805.84;;;12.73;100.00
42587;BME280;28216;53.362;-6.288;2023-05-23T00:31:03;102808.59;;;12.61;100.00
42587;BME280;28216;53.362;-6.288;2023-05-23T00:33:30;102805.84;;;12.62;100.00
42587;BME280;28216;53.362;-6.288;2023-05-23T00:35:58;102799.53;;;12.65;100.00
42587;BME280;28216;53.362;-6.288;2023-05-23T00:38:23;102799.97;;;12.59;100.00
42587;BME280;28216;53.362;-6.288;2023-05-23T00:40:49;102797.34;;;12.59;100.00
42587;BME280;28216;53.362;-6.288;2023-05-23T00:43:14;102796.88;;;12.65;100.00
42587;BME280;28216;53.362;-6.288;2023-05-23T00:45:40;102802.50;;;12.60;100.00
42587;BME280;28216;53.362;-6.288;2023-05-23T00:48:06;102793.50;;;12.63;100.00
42587;BME280;28216;53.362;-6.288;2023-05-23T00:50:32;102799.97;;;12.59;100.00
42587;BME280;28216;53.362;-6.288;2023-05-23T00:52:59;102791.25;;;12.58;100.00
42587;BME280;28216;53.362;-6.288;2023-05-23T00:55:25;102785.88;;;12.60;100.00
42587;BME280;28216;53.362;-6.288;2023-05-23T00:57:53;102789.44;;;12.59;100.00
42587;BME280;28216;53.362;-6.288;2023-05-23T01:00:22;102781.69;;;12.57;100.00
42587;BME280;28216;53.362;-6.288;2023-05-23T01:02:50;102787.78;;;12.58;100.00
42587;BME280;28216;53.362;-6.288;2023-05-23T01:05:17;102788.63;;;12.58;100.00
42587;BME280;28216;53.362;-6.288;2023-05-23T01:07:43;102789.69;;;12.56;100.00
42587;BME280;28216;53.362;-6.288;2023-05-23T01:10:09;102801.19;;;12.55;100.00
42587;BME280;28216;53.362;-6.288;2023-05-23T01:18:09;102806.22;;;12.47;100.00
42587;BME280;28216;53.362;-6.288;2023-05-23T01:20:42;102795.56;;;12.48;100.00
42587;BME280;28216;53.362;-6.288;2023-05-23T01:23:15;102796.41;;;12.49;100.00
42587;BME280;28216;53.362;-6.288;2023-05-23T01:26:02;102797.97;;;12.51;100.00
42587;BME280;28216;53.362;-6.288;2023-05-23T01:28:48;102800.25;;;12.45;100.00
42587;BME280;28216;53.362;-6.288;2023-05-23T01:31:16;102805.88;;;12.40;100.00
42587;BME280;28216;53.362;-6.288;2023-05-23T01:33:42;102801.44;;;12.40;100.00
42587;BME280;28216;53.362;-6.288;2023-05-23T01:36:11;102804.06;;;12.40;100.00
42587;BME280;28216;53.362;-6.288;2023-05-23T01:38:37;102807.19;;;12.34;100.00
42587;BME280;28216;53.362;-6.288;2023-05-23T01:41:02;102798.81;;;12.29;100.00
42587;BME280;28216;53.362;-6.288;2023-05-23T01:43:28;102808.28;;;12.32;100.00
42587;BME280;28216;53.362;-6.288;2023-05-23T01:45:55;102807.56;;;12.30;100.00
42587;BME280;28216;53.362;-6.288;2023-05-23T01:48:23;102804.31;;;12.26;100.00
42587;BME280;28216;53.362;-6.288;2023-05-23T01:50:50;102806.72;;;12.29;100.00
42587;BME280;28216;53.362;-6.288;2023-05-23T01:53:19;102809.59;;;12.26;100.00
42587;BME280;28216;53.362;-6.288;2023-05-23T01:55:45;102809.94;;;12.22;100.00
42587;BME280;28216;53.362;-6.288;2023-05-23T01:58:11;102819.50;;;12.23;100.00
42587;BME280;28216;53.362;-6.288;2023-05-23T02:00:37;102816.16;;;12.21;100.00
42587;BME280;28216;53.362;-6.288;2023-05-23T02:03:03;102813.66;;;12.19;100.00
42587;BME280;28216;53.362;-6.288;2023-05-23T02:05:28;102817.13;;;12.20;100.00
42587;BME280;28216;53.362;-6.288;2023-05-23T02:07:54;102824.91;;;12.21;100.00
42587;BME280;28216;53.362;-6.288;2023-05-23T02:10:20;102826.56;;;12.22;100.00
42587;BME280;28216;53.362;-6.288;2023-05-23T02:12:45;102820.34;;;12.23;100.00
42587;BME280;28216;53.362;-6.288;2023-05-23T02:15:11;102813.19;;;12.25;100.00
42587;BME280;28216;53.362;-6.288;2023-05-23T02:17:36;102815.94;;;12.24;100.00
42587;BME280;28216;53.362;-6.288;2023-05-23T02:20:03;102820.34;;;12.23;100.00
42587;BME280;28216;53.362;-6.288;2023-05-23T02:22:30;102811.75;;;12.21;100.00
42587;BME280;28216;53.362;-6.288;2023-05-23T02:24:56;102804.94;;;12.19;100.00
42587;BME280;28216;53.362;-6.288;2023-05-23T02:27:21;102811.75;;;12.21;100.00
42587;BME280;28216;53.362;-6.288;2023-05-23T02:29:47;102815.56;;;12.17;100.00
42587;BME280;28216;53.362;-6.288;2023-05-23T02:32:12;102814.72;;;12.17;100.00
42587;BME280;28216;53.362;-6.288;2023-05-23T02:34:38;102816.53;;;12.16;100.00
42587;BME280;28216;53.362;-6.288;2023-05-23T02:37:04;102808.50;;;12.06;100.00
42587;BME280;28216;53.362;-6.288;2023-05-23T02:39:30;102817.13;;;12.08;100.00
42587;BME280;28216;53.362;-6.288;2023-05-23T02:41:55;102815.44;;;12.07;100.00
42587;BME280;28216;53.362;-6.288;2023-05-23T02:44:21;102813.78;;;12.06;100.00
42587;BME280;28216;53.362;-6.288;2023-05-23T02:46:46;102813.16;;;12.03;100.00
42587;BME280;28216;53.362;-6.288;2023-05-23T02:49:12;102814.72;;;12.05;100.00
42587;BME280;28216;53.362;-6.288;2023-05-23T02:51:37;102824.66;;;12.02;100.00
42587;BME280;28216;53.362;-6.288;2023-05-23T02:54:03;102825.59;;;12.01;100.00
42587;BME280;28216;53.362;-6.288;2023-05-23T02:56:28;102819.88;;;11.96;100.00
42587;BME280;28216;53.362;-6.288;2023-05-23T02:58:53;102825.59;;;11.90;100.00
42587;BME280;28216;53.362;-6.288;2023-05-23T03:01:19;102822.78;;;11.80;100.00
42587;BME280;28216;53.362;-6.288;2023-05-23T03:03:45;102819.94;;;11.83;100.00
42587;BME280;28216;53.362;-6.288;2023-05-23T03:06:10;102831.75;;;11.77;100.00
42587;BME280;28216;53.362;-6.288;2023-05-23T03:08:39;102821.25;;;11.77;100.00
42587;BME280;28216;53.362;-6.288;2023-05-23T03:11:04;102828.88;;;11.81;100.00
42587;BME280;28216;53.362;-6.288;2023-05-23T03:13:30;102827.09;;;11.81;100.00
42587;BME280;28216;53.362;-6.288;2023-05-23T03:15:55;102822.91;;;11.78;100.00
42587;BME280;28216;53.362;-6.288;2023-05-23T03:18:21;102824.59;;;11.80;100.00
42587;BME280;28216;53.362;-6.288;2023-05-23T03:20:46;102824.59;;;11.80;100.00
42587;BME280;28216;53.362;-6.288;2023-05-23T03:23:12;102823.50;;;11.82;100.00
42587;BME280;28216;53.362;-6.288;2023-05-23T03:25:37;102822.44;;;11.85;100.00
42587;BME280;28216;53.362;-6.288;2023-05-23T03:28:03;102821.44;;;11.74;100.00
42587;BME280;28216;53.362;-6.288;2023-05-23T03:30:28;102821.25;;;11.77;100.00
42587;BME280;28216;53.362;-6.288;2023-05-23T03:32:54;102828.38;;;11.75;100.00
42587;BME280;28216;53.362;-6.288;2023-05-23T03:35:19;102826.38;;;11.79;100.00
42587;BME280;28216;53.362;-6.288;2023-05-23T03:37:45;102831.00;;;11.75;100.00
42587;BME280;28216;53.362;-6.288;2023-05-23T03:40:11;102823.88;;;11.77;100.00
42587;BME280;28216;53.362;-6.288;2023-05-23T03:42:37;102826.56;;;11.76;100.00
42587;BME280;28216;53.362;-6.288;2023-05-23T03:45:04;102819.75;;;11.62;100.00
42587;BME280;28216;53.362;-6.288;2023-05-23T03:47:30;102817.94;;;11.63;100.00
42587;BME280;28216;53.362;-6.288;2023-05-23T03:49:55;102815.94;;;11.66;100.00
42587;BME280;28216;53.362;-6.288;2023-05-23T03:52:21;102809.47;;;11.70;100.00
42587;BME280;28216;53.362;-6.288;2023-05-23T03:54:46;102813.56;;;11.74;100.00
42587;BME280;28216;53.362;-6.288;2023-05-23T03:57:11;102808.41;;;11.73;100.00
42587;BME280;28216;53.362;-6.288;2023-05-23T03:59:37;102805.31;;;11.68;100.00
42587;BME280;28216;53.362;-6.288;2023-05-23T04:02:02;102809.84;;;11.66;100.00
42587;BME280;28216;53.362;-6.288;2023-05-23T04:04:28;102808.28;;;11.63;100.00
42587;BME280;28216;53.362;-6.288;2023-05-23T04:06:54;102806.72;;;11.61;100.00
42587;BME280;28216;53.362;-6.288;2023-05-23T04:09:20;102805.41;;;11.55;100.00
42587;BME280;28216;53.362;-6.288;2023-05-23T04:11:46;102801.94;;;11.55;100.00
42587;BME280;28216;53.362;-6.288;2023-05-23T04:14:11;102801.69;;;11.58;100.00
42587;BME280;28216;53.362;-6.288;2023-05-23T04:16:37;102798.47;;;11.54;100.00
42587;BME280;28216;53.362;-6.288;2023-05-23T04:19:06;102798.13;;;11.59;100.00
42587;BME280;28216;53.362;-6.288;2023-05-23T04:21:32;102796.69;;;11.55;100.00
42587;BME280;28216;53.362;-6.288;2023-05-23T04:23:58;102799.06;;;11.58;100.00
42587;BME280;28216;53.362;-6.288;2023-05-23T04:26:23;102790.97;;;11.61;100.00
42587;BME280;28216;53.362;-6.288;2023-05-23T04:28:49;102801.69;;;11.58;100.00
42587;BME280;28216;53.362;-6.288;2023-05-23T04:31:19;102801.81;;;11.56;100.00
42587;BME280;28216;53.362;-6.288;2023-05-23T04:33:44;102801.81;;;11.56;100.00
42587;BME280;28216;53.362;-6.288;2023-05-23T04:36:10;102806.13;;;11.57;100.00
42587;BME280;28216;53.362;-6.288;2023-05-23T04:38:35;102806.22;;;11.56;100.00
42587;BME280;28216;53.362;-6.288;2023-05-23T04:41:04;102804.09;;;11.61;100.00
42587;BME280;28216;53.362;-6.288;2023-05-23T04:43:30;102801.94;;;11.66;100.00
42587;BME280;28216;53.362;-6.288;2023-05-23T04:45:58;102806.50;;;11.64;100.00
42587;BME280;28216;53.362;-6.288;2023-05-23T04:48:24;102797.78;;;11.63;100.00
42587;BME280;28216;53.362;-6.288;2023-05-23T04:50:51;102797.88;;;11.62;100.00
42587;BME280;28216;53.362;-6.288;2023-05-23T04:53:17;102802.31;;;11.61;100.00
42587;BME280;28216;53.362;-6.288;2023-05-23T04:55:42;102806.13;;;11.68;100.00
42587;BME280;28216;53.362;-6.288;2023-05-23T04:58:07;102812.69;;;11.63;100.00
42587;BME280;28216;53.362;-6.288;2023-05-23T05:00:34;102817.72;;;11.66;100.00
42587;BME280;28216;53.362;-6.288;2023-05-23T05:03:00;102813.19;;;11.68;100.00
42587;BME280;28216;53.362;-6.288;2023-05-23T05:05:25;102805.41;;;11.66;100.00
42587;BME280;28216;53.362;-6.288;2023-05-23T05:07:51;102813.31;;;11.66;100.00
42587;BME280;28216;53.362;-6.288;2023-05-23T05:10:16;102815.22;;;11.64;100.00
42587;BME280;28216;53.362;-6.288;2023-05-23T05:12:43;102817.59;;;11.67;100.00
42587;BME280;28216;53.362;-6.288;2023-05-23T05:15:10;102818.81;;;11.74;100.00
42587;BME280;28216;53.362;-6.288;2023-05-23T05:17:35;102823.34;;;11.72;100.00
42587;BME280;28216;53.362;-6.288;2023-05-23T05:20:02;102824.53;;;11.68;100.00
42587;BME280;28216;53.362;-6.288;2023-05-23T05:22:33;102825.84;;;11.74;100.00
42587;BME280;28216;53.362;-6.288;2023-05-23T05:24:59;102813.34;;;11.77;100.00
42587;BME280;28216;53.362;-6.288;2023-05-23T05:27:25;102817.53;;;11.80;100.00
42587;BME280;28216;53.362;-6.288;2023-05-23T05:29:51;102819.09;;;11.83;100.00
42587;BME280;28216;53.362;-6.288;2023-05-23T05:32:17;102817.53;;;11.80;100.00
42587;BME280;28216;53.362;-6.288;2023-05-23T05:34:43;102814.56;;;11.85;100.00
42587;BME280;28216;53.362;-6.288;2023-05-23T05:37:08;102823.78;;;11.90;100.00
42587;BME280;28216;53.362;-6.288;2023-05-23T05:39:34;102819.56;;;11.88;100.00
42587;BME280;28216;53.362;-6.288;2023-05-23T05:41:59;102809.34;;;11.96;100.00
42587;BME280;28216;53.362;-6.288;2023-05-23T05:44:27;102811.38;;;11.92;100.00
42587;BME280;28216;53.362;-6.288;2023-05-23T05:46:53;102807.44;;;11.98;100.00
42587;BME280;28216;53.362;-6.288;2023-05-23T05:49:19;102808.75;;;12.03;100.00
42587;BME280;28216;53.362;-6.288;2023-05-23T05:51:44;102807.91;;;12.03;100.00
42587;BME280;28216;53.362;-6.288;2023-05-23T05:54:10;102804.09;;;12.07;100.00
42587;BME280;28216;53.362;-6.288;2023-05-23T05:56:35;102809.22;;;12.08;100.00
42587;BME280;28216;53.362;-6.288;2023-05-23T05:59:01;102804.69;;;12.11;100.00
42587;BME280;28216;53.362;-6.288;2023-05-23T06:01:26;102805.06;;;12.17;100.00
42587;BME280;28216;53.362;-6.288;2023-05-23T06:03:52;102800.25;;;12.22;100.00
42587;BME280;28216;53.362;-6.288;2023-05-23T06:06:17;102804.81;;;12.20;100.00
42587;BME280;28216;53.362;-6.288;2023-05-23T06:08:43;102790.47;;;12.24;100.00
42587;BME280;28216;53.362;-6.288;2023-05-23T06:11:09;102796.53;;;12.36;100.00
42587;BME280;28216;53.362;-6.288;2023-05-23T06:13:36;102797.03;;;12.41;100.00
42587;BME280;28216;53.362;-6.288;2023-05-23T06:16:01;102791.88;;;12.39;100.00
42587;BME280;28216;53.362;-6.288;2023-05-23T06:18:27;102796.66;;;12.46;100.00
42587;BME280;28216;53.362;-6.288;2023-05-23T06:20:52;102791.03;;;12.50;100.00
42587;BME280;28216;53.362;-6.288;2023-05-23T06:23:18;102799.41;;;12.44;100.00
42587;BME280;28216;53.362;-6.288;2023-05-23T06:25:43;102797.84;;;12.53;100.00
42587;BME280;28216;53.362;-6.288;2023-05-23T06:28:09;102798.31;;;12.58;100.00
42587;BME280;28216;53.362;-6.288;2023-05-23T06:30:34;102802.38;;;12.62;100.00
42587;BME280;28216;53.362;-6.288;2023-05-23T06:33:02;102815.06;;;12.68;100.00
42587;BME280;28216;53.362;-6.288;2023-05-23T06:35:27;102820.44;;;12.66;100.00
42587;BME280;28216;53.362;-6.288;2023-05-23T06:37:53;102823.78;;;12.68;100.00
42587;BME280;28216;53.362;-6.288;2023-05-23T06:40:18;102816.50;;;12.72;100.00
42587;BME280;28216;53.362;-6.288;2023-05-23T06:42:43;102822.81;;;12.81;100.00
42587;BME280;28216;53.362;-6.288;2023-05-23T06:45:09;102828.78;;;12.83;100.00
42587;BME280;28216;53.362;-6.288;2023-05-23T06:47:35;102824.69;;;12.90;100.00
42587;BME280;28216;53.362;-6.288;2023-05-23T06:50:01;102823.03;;;12.89;100.00
42587;BME280;28216;53.362;-6.288;2023-05-23T06:52:27;102828.38;;;12.98;100.00
42587;BME280;28216;53.362;-6.288;2023-05-23T06:54:52;102825.41;;;12.92;100.00
42587;BME280;28216;53.362;-6.288;2023-05-23T06:57:18;102824.00;;;12.88;100.00
42587;BME280;28216;53.362;-6.288;2023-05-23T06:59:43;102812.63;;;12.87;100.00
42587;BME280;28216;53.362;-6.288;2023-05-23T07:02:09;102813.09;;;12.92;100.00
42587;BME280;28216;53.362;-6.288;2023-05-23T07:04:34;102812.47;;;13.00;100.00
42587;BME280;28216;53.362;-6.288;2023-05-23T07:10:23;102814.47;;;13.08;100.00
42587;BME280;28216;53.362;-6.288;2023-05-23T07:16:16;102811.19;;;13.26;100.00
42587;BME280;28216;53.362;-6.288;2023-05-23T07:18:41;102813.91;;;13.36;100.00
42587;BME280;28216;53.362;-6.288;2023-05-23T07:21:07;102817.97;;;13.40;100.00
42587;BME280;28216;53.362;-6.288;2023-05-23T07:23:32;102812.38;;;13.54;100.00
42587;BME280;28216;53.362;-6.288;2023-05-23T07:26:01;102815.66;;;13.67;100.00
42587;BME280;28216;53.362;-6.288;2023-05-23T07:28:27;102810.75;;;13.84;100.00
42587;BME280;28216;53.362;-6.288;2023-05-23T07:30:52;102812.88;;;13.90;100.00
42587;BME280;28216;53.362;-6.288;2023-05-23T07:33:17;102807.78;;;13.98;100.00
42587;BME280;28216;53.362;-6.288;2023-05-23T07:35:43;102803.44;;;14.18;100.00
42587;BME280;28216;53.362;-6.288;2023-05-23T07:38:09;102803.06;;;14.22;100.00
42587;BME280;28216;53.362;-6.288;2023-05-23T07:40:41;102802.53;;;14.28;100.00
42587;BME280;28216;53.362;-6.288;2023-05-23T07:46:35;102804.47;;;14.26;100.00
42587;BME280;28216;53.362;-6.288;2023-05-23T07:56:24;102809.25;;;16.71;100.00
42587;BME280;28216;53.362;-6.288;2023-05-23T07:58:50;102805.78;;;17.41;100.00
42587;BME280;28216;53.362;-6.288;2023-05-23T08:01:16;102815.22;;;18.14;100.00
42587;BME280;28216;53.362;-6.288;2023-05-23T08:03:42;102810.16;;;18.79;100.00
42587;BME280;28216;53.362;-6.288;2023-05-23T08:06:08;102813.06;;;19.34;100.00
42587;BME280;28216;53.362;-6.288;2023-05-23T08:08:34;102811.22;;;19.51;100.00
42587;BME280;28216;53.362;-6.288;2023-05-23T08:11:00;102821.97;;;19.90;100.00
42587;BME280;28216;53.362;-6.288;2023-05-23T08:13:25;102810.44;;;20.06;100.00
42587;BME280;28216;53.362;-6.288;2023-05-23T08:15:51;102806.28;;;20.50;100.00
42587;BME280;28216;53.362;-6.288;2023-05-23T08:18:16;102812.53;;;20.26;100.00
42587;BME280;28216;53.362;-6.288;2023-05-23T08:20:42;102812.28;;;20.52;98.23
42587;BME280;28216;53.362;-6.288;2023-05-23T08:23:08;102810.03;;;20.64;96.54
42587;BME280;28216;53.362;-6.288;2023-05-23T08:25:33;102806.91;;;20.91;95.32
42587;BME280;28216;53.362;-6.288;2023-05-23T08:28:00;102797.94;;;21.07;93.63
42587;BME280;28216;53.362;-6.288;2023-05-23T08:30:26;102797.72;;;20.94;94.56
42587;BME280;28216;53.362;-6.288;2023-05-23T08:32:52;102795.13;;;20.78;89.32
42587;BME280;28216;53.362;-6.288;2023-05-23T08:35:18;102792.59;;;21.07;84.55
42587;BME280;28216;53.362;-6.288;2023-05-23T08:37:44;102794.00;;;21.18;79.25
42587;BME280;28216;53.362;-6.288;2023-05-23T08:40:14;102797.34;;;20.97;78.46
42587;BME280;28216;53.362;-6.288;2023-05-23T08:42:42;102800.25;;;20.56;85.23
42587;BME280;28216;53.362;-6.288;2023-05-23T08:45:08;102801.19;;;20.33;85.67
42587;BME280;28216;53.362;-6.288;2023-05-23T08:47:35;102801.13;;;20.10;87.33
42587;BME280;28216;53.362;-6.288;2023-05-23T08:50:04;102811.88;;;19.61;90.90
42587;BME280;28216;53.362;-6.288;2023-05-23T08:52:32;102810.88;;;19.13;93.87
42587;BME280;28216;53.362;-6.288;2023-05-23T08:54:59;102811.38;;;19.41;89.78
42587;BME280;28216;53.362;-6.288;2023-05-23T08:57:26;102814.19;;;19.31;88.86
42587;BME280;28216;53.362;-6.288;2023-05-23T08:59:53;102812.22;;;19.42;86.83
42587;BME280;28216;53.362;-6.288;2023-05-23T09:02:21;102806.56;;;19.69;84.63
42587;BME280;28216;53.362;-6.288;2023-05-23T09:04:46;102803.28;;;20.14;81.14
42587;BME280;28216;53.362;-6.288;2023-05-23T09:07:14;102795.97;;;20.00;80.22
42587;BME280;28216;53.362;-6.288;2023-05-23T09:09:41;102786.13;;;20.17;79.75
42587;BME280;28216;53.362;-6.288;2023-05-23T09:12:06;102784.72;;;20.29;80.57
42587;BME280;28216;53.362;-6.288;2023-05-23T09:14:32;102796.53;;;19.79;83.40
42587;BME280;28216;53.362;-6.288;2023-05-23T09:17:00;102791.06;;;19.81;80.41
42587;BME280;28216;53.362;-6.288;2023-05-23T09:19:27;102788.94;;;19.68;81.93
42587;BME280;28216;53.362;-6.288;2023-05-23T09:21:53;102780.34;;;19.97;79.14
42587;BME280;28216;53.362;-6.288;2023-05-23T09:24:19;102777.78;;;20.20;78.30
42587;BME280;28216;53.362;-6.288;2023-05-23T09:26:48;102773.47;;;20.19;77.41
42587;BME280;28216;53.362;-6.288;2023-05-23T09:29:15;102776.38;;;20.40;76.50
42587;BME280;28216;53.362;-6.288;2023-05-23T09:31:43;102779.16;;;20.47;74.16
42587;BME280;28216;53.362;-6.288;2023-05-23T09:34:08;102783.94;;;20.20;74.79
42587;BME280;28216;53.362;-6.288;2023-05-23T09:36:35;102772.69;;;19.94;76.98
42587;BME280;28216;53.362;-6.288;2023-05-23T09:39:02;102773.72;;;19.93;73.77
42587;BME280;28216;53.362;-6.288;2023-05-23T09:41:33;102767.56;;;20.31;69.37
42587;BME280;28216;53.362;-6.288;2023-05-23T09:44:07;102764.94;;;20.23;67.66
42587;BME280;28216;53.362;-6.288;2023-05-23T09:46:35;102772.00;;;20.47;65.14
42587;BME280;28216;53.362;-6.288;2023-05-23T09:49:09;102767.09;;;20.28;68.42
42587;BME280;28216;53.362;-6.288;2023-05-23T09:51:39;102760.41;;;20.63;63.30
42587;BME280;28216;53.362;-6.288;2023-05-23T09:54:04;102752.53;;;20.47;64.88
42587;BME280;28216;53.362;-6.288;2023-05-23T09:56:30;102754.72;;;20.35;66.52
42587;BME280;28216;53.362;-6.288;2023-05-23T09:58:58;102758.13;;;20.21;68.52
42587;BME280;28216;53.362;-6.288;2023-05-23T10:01:26;102757.56;;;20.42;70.74
42587;BME280;28216;53.362;-6.288;2023-05-23T10:03:54;102757.03;;;20.38;70.79
42587;BME280;28216;53.362;-6.288;2023-05-23T10:06:30;102758.19;;;20.44;71.36
42587;BME280;28216;53.362;-6.288;2023-05-23T10:09:03;102763.13;;;20.78;69.07
42587;BME280;28216;53.362;-6.288;2023-05-23T10:13:58;102751.59;;;20.62;69.48
42587;BME280;28216;53.362;-6.288;2023-05-23T10:16:39;102763.00;;;20.48;68.99
42587;BME280;28216;53.362;-6.288;2023-05-23T10:19:22;102767.16;;;20.51;70.93
42587;BME280;28216;53.362;-6.288;2023-05-23T10:21:50;102757.28;;;20.59;70.80
42587;BME280;28216;53.362;-6.288;2023-05-23T10:24:20;102760.22;;;20.65;69.85
42587;BME280;28216;53.362;-6.288;2023-05-23T10:26:46;102770.28;;;20.85;68.72
42587;BME280;28216;53.362;-6.288;2023-05-23T10:29:12;102761.72;;;20.36;68.29
42587;BME280;28216;53.362;-6.288;2023-05-23T10:31:56;102759.50;;;20.48;72.10
42587;BME280;28216;53.362;-6.288;2023-05-23T10:34:29;102745.34;;;20.47;69.88
42587;BME280;28216;53.362;-6.288;2023-05-23T10:37:04;102739.56;;;20.36;70.75
42587;BME280;28216;53.362;-6.288;2023-05-23T10:42:03;102752.78;;;20.83;67.38
42587;BME280;28216;53.362;-6.288;2023-05-23T10:44:31;102749.59;;;20.87;68.66
42587;BME280;28216;53.362;-6.288;2023-05-23T10:46:58;102752.66;;;20.99;67.93
42587;BME280;28216;53.362;-6.288;2023-05-23T10:49:38;102742.16;;;20.75;69.03
42587;BME280;28216;53.362;-6.288;2023-05-23T10:52:04;102730.63;;;20.82;67.81
42587;BME280;28216;53.362;-6.288;2023-05-23T10:57:06;102737.38;;;20.47;67.04
42587;BME280;28216;53.362;-6.288;2023-05-23T10:59:32;102740.16;;;20.23;68.78
42587;BME280;28216;53.362;-6.288;2023-05-23T11:01:58;102749.34;;;20.12;70.83
42587;BME280;28216;53.362;-6.288;2023-05-23T11:04:28;102736.88;;;20.05;73.34
42587;BME280;28216;53.362;-6.288;2023-05-23T11:06:54;102734.25;;;19.96;76.38
42587;BME280;28216;53.362;-6.288;2023-05-23T11:09:21;102741.75;;;20.32;69.49
42587;BME280;28216;53.362;-6.288;2023-05-23T11:14:29;102736.22;;;20.03;68.74
42587;BME280;28216;53.362;-6.288;2023-05-23T11:17:28;102735.81;;;20.22;71.18
42587;BME280;28216;53.362;-6.288;2023-05-23T11:19:58;102730.03;;;20.49;71.47
42587;BME280;28216;53.362;-6.288;2023-05-23T11:22:28;102719.31;;;20.57;69.89
42587;BME280;28216;53.362;-6.288;2023-05-23T11:24:56;102723.56;;;20.67;70.23
42587;BME280;28216;53.362;-6.288;2023-05-23T11:27:38;102724.47;;;20.28;72.36
42587;BME280;28216;53.362;-6.288;2023-05-23T11:30:16;102725.41;;;20.35;69.16
42587;BME280;28216;53.362;-6.288;2023-05-23T11:32:49;102718.66;;;20.24;72.56
42587;BME280;28216;53.362;-6.288;2023-05-23T11:35:15;102716.56;;;20.43;72.49
42587;BME280;28216;53.362;-6.288;2023-05-23T11:37:42;102719.63;;;20.31;72.90
42587;BME280;28216;53.362;-6.288;2023-05-23T11:42:50;102718.78;;;20.62;70.30
42587;BME280;28216;53.362;-6.288;2023-05-23T11:45:18;102725.47;;;20.81;69.41
42587;BME280;28216;53.362;-6.288;2023-05-23T11:47:43;102719.63;;;20.85;69.54
42587;BME280;28216;53.362;-6.288;2023-05-23T11:50:09;102727.13;;;20.59;69.95
42587;BME280;28216;53.362;-6.288;2023-05-23T11:52:35;102697.84;;;20.74;68.64
42587;BME280;28216;53.362;-6.288;2023-05-23T11:55:00;102711.66;;;20.54;68.35
42587;BME280;28216;53.362;-6.288;2023-05-23T11:57:26;102710.38;;;20.50;65.98
42587;BME280;28216;53.362;-6.288;2023-05-23T11:59:52;102714.00;;;20.26;66.36
42587;BME280;28216;53.362;-6.288;2023-05-23T12:02:20;102720.06;;;20.43;66.84
42587;BME280;28216;53.362;-6.288;2023-05-23T12:04:45;102714.75;;;20.43;66.46
42587;BME280;28216;53.362;-6.288;2023-05-23T12:07:12;102712.56;;;20.47;69.63
42587;BME280;28216;53.362;-6.288;2023-05-23T12:09:44;102703.91;;;20.68;66.89
42587;BME280;28216;53.362;-6.288;2023-05-23T12:12:11;102696.16;;;20.81;65.51
42587;BME280;28216;53.362;-6.288;2023-05-23T12:14:37;102705.63;;;20.60;68.44
42587;BME280;28216;53.362;-6.288;2023-05-23T12:17:10;102708.66;;;20.57;68.29
42587;BME280;28216;53.362;-6.288;2023-05-23T12:19:37;102711.06;;;20.67;66.78
42587;BME280;28216;53.362;-6.288;2023-05-23T12:22:06;102704.66;;;20.76;70.14
42587;BME280;28216;53.362;-6.288;2023-05-23T12:24:33;102693.59;;;20.87;71.76
42587;BME280;28216;53.362;-6.288;2023-05-23T12:26:59;102689.47;;;20.85;73.96
42587;BME280;28216;53.362;-6.288;2023-05-23T12:32:46;102694.16;;;20.98;75.67
42587;BME280;28216;53.362;-6.288;2023-05-23T12:35:13;102693.81;;;21.01;71.69
42587;BME280;28216;53.362;-6.288;2023-05-23T12:41:16;102682.22;;;20.71;72.55
42587;BME280;28216;53.362;-6.288;2023-05-23T12:43:51;102678.63;;;21.01;71.76
42587;BME280;28216;53.362;-6.288;2023-05-23T12:46:20;102680.47;;;21.01;71.29
42587;BME280;28216;53.362;-6.288;2023-05-23T12:48:46;102681.19;;;20.94;71.40
42587;BME280;28216;53.362;-6.288;2023-05-23T12:51:15;102678.72;;;20.93;71.35
42587;BME280;28216;53.362;-6.288;2023-05-23T12:53:41;102672.13;;;21.04;70.81
42587;BME280;28216;53.362;-6.288;2023-05-23T12:56:07;102680.84;;;20.98;70.15
42587;BME280;28216;53.362;-6.288;2023-05-23T12:58:32;102681.00;;;20.81;71.98
42587;BME280;28216;53.362;-6.288;2023-05-23T13:01:00;102675.88;;;20.72;70.89
42587;BME280;28216;53.362;-6.288;2023-05-23T13:03:25;102675.78;;;20.65;73.67
42587;BME280;28216;53.362;-6.288;2023-05-23T13:05:51;102680.34;;;20.56;74.76
42587;BME280;28216;53.362;-6.288;2023-05-23T13:08:18;102672.84;;;20.75;73.63
42587;BME280;28216;53.362;-6.288;2023-05-23T13:10:44;102689.28;;;20.63;72.08
42587;BME280;28216;53.362;-6.288;2023-05-23T13:13:10;102678.84;;;20.77;71.96
42587;BME280;28216;53.362;-6.288;2023-05-23T13:15:36;102683.41;;;20.68;69.33